Time;durP1;ratioP1;P1;durP2;ratioP2;P2;SDS_P1;SDS_P2;PMS_P1;PMS_P2;Temp;Humidity;BMP_temperature;BMP_pressure;BME280_temperature;BME280_humidity;BME280_pressure;Samples;Min_cycle;Max_cycle;Signal;HPM_P1;HPM_P2
2024/02/19 00:01:30;;;;;;;2.72;2.50;;;;;;;9.83;75.93;97516.38;4956131;29;20419;-80
2024/02/19 00:03:59;;;;;;;3.30;3.00;;;;;;;9.81;75.63;97516.53;4956542;29;20094;-80
2024/02/19 00:06:28;;;;;;;3.78;2.47;;;;;;;9.81;75.72;97526.97;4956466;29;20043;-80
2024/02/19 00:08:57;;;;;;;2.53;2.25;;;;;;;9.77;75.59;97512.59;4956306;29;20063;-80
2024/02/19 00:11:25;;;;;;;2.65;2.45;;;;;;;9.73;75.82;97519.13;4956493;29;20047;-80
2024/02/19 00:13:57;;;;;;;2.63;2.42;;;;;;;9.73;76.42;97515.66;4956084;29;20051;-80
2024/02/19 00:16:26;;;;;;;3.00;2.28;;;;;;;9.72;76.79;97501.03;4955874;29;20455;-79
2024/02/19 00:18:54;;;;;;;2.53;2.25;;;;;;;9.72;76.68;97504.44;4955980;29;20055;-80
2024/02/19 00:21:23;;;;;;;2.35;2.03;;;;;;;9.70;76.79;97507.19;4955890;29;20138;-80
2024/02/19 00:23:52;;;;;;;3.95;2.22;;;;;;;9.67;76.90;97504.09;4956030;29;20043;-79
2024/02/19 00:26:21;;;;;;;3.30;2.65;;;;;;;9.66;77.53;97513.69;4955957;29;20058;-80
2024/02/19 00:28:50;;;;;;;2.30;2.10;;;;;;;9.67;77.12;97514.50;4955988;29;20067;-80
2024/02/19 00:31:20;;;;;;;2.28;2.08;;;;;;;9.69;77.49;97518.59;4955951;29;20044;-81
2024/02/19 00:33:49;;;;;;;2.78;2.47;;;;;;;9.69;77.32;97520.38;4955853;29;20047;-81
2024/02/19 00:36:21;;;;;;;3.03;2.10;;;;;;;9.68;77.60;97521.34;4956227;29;20090;-81
2024/02/19 00:38:49;;;;;;;2.40;2.20;;;;;;;9.67;77.97;97522.31;4955756;29;20051;-80
2024/02/19 00:41:19;;;;;;;2.60;2.10;;;;;;;9.68;77.73;97523.94;4955792;29;20082;-80
2024/02/19 00:43:48;;;;;;;2.53;2.28;;;;;;;9.67;78.22;97517.13;4956026;29;20437;-80
2024/02/19 00:46:16;;;;;;;2.80;2.33;;;;;;;9.68;78.43;97516.13;4955851;29;20054;-80
2024/02/19 00:48:47;;;;;;;2.85;2.38;;;;;;;9.69;78.29;97518.59;4955658;29;20070;-81
2024/02/19 00:51:15;;;;;;;2.45;2.05;;;;;;;9.74;78.23;97515.53;4955846;29;20051;-80
2024/02/19 00:53:45;;;;;;;2.33;2.08;;;;;;;9.76;78.31;97508.38;4955739;29;20110;-80
2024/02/19 00:56:13;;;;;;;6.18;1.75;;;;;;;9.80;78.73;97503.69;4955674;29;20051;-80
2024/02/19 00:58:42;;;;;;;2.05;1.90;;;;;;;9.82;78.79;97505.16;4956318;29;20170;-80
2024/02/19 01:01:11;;;;;;;2.05;1.52;;;;;;;9.84;78.46;97513.63;4955713;29;20058;-81
2024/02/19 01:03:40;;;;;;;1.85;1.75;;;;;;;9.87;78.81;97512.50;4960174;29;20491;-81
2024/02/19 01:06:11;;;;;;;3.20;2.33;;;;;;;9.86;78.32;97509.09;4962316;29;20051;-80
2024/02/19 01:08:40;;;;;;;2.10;1.90;;;;;;;9.88;78.71;97512.38;4958747;29;20043;-80
2024/02/19 01:11:10;;;;;;;1.77;1.67;;;;;;;9.92;78.46;97507.63;4956245;29;20462;-80
2024/02/19 01:13:39;;;;;;;1.90;1.77;;;;;;;9.93;78.44;97513.66;4955872;29;20077;-80
2024/02/19 01:16:08;;;;;;;3.65;2.40;;;;;;;9.92;78.10;97505.03;4955962;29;20057;-80
2024/02/19 01:18:39;;;;;;;2.47;2.00;;;;;;;9.91;78.46;97513.84;4955735;29;20048;-80
2024/02/19 01:21:09;;;;;;;2.47;2.22;;;;;;;9.92;78.42;97517.25;4955773;29;20265;-80
2024/02/19 01:23:38;;;;;;;1.85;1.52;;;;;;;9.93;78.31;97508.44;4955306;29;20055;-81
2024/02/19 01:26:07;;;;;;;1.45;1.35;;;;;;;9.94;78.39;97505.69;4955443;29;20538;-80
2024/02/19 01:28:37;;;;;;;2.15;1.95;;;;;;;9.97;78.19;97499.34;4955405;29;20053;-80
2024/02/19 01:31:06;;;;;;;1.90;1.80;;;;;;;9.98;77.51;97501.81;4955774;29;20105;-80
2024/02/19 01:33:36;;;;;;;2.25;2.03;;;;;;;9.96;77.98;97489.91;4955487;29;20051;-80
2024/02/19 01:36:05;;;;;;;2.05;1.85;;;;;;;9.96;78.02;97500.34;4955624;29;20113;-80
2024/02/19 01:38:36;;;;;;;3.17;2.08;;;;;;;9.97;78.36;97494.13;4954018;29;20054;-80
2024/02/19 01:41:05;;;;;;;1.73;1.63;;;;;;;9.98;78.20;97496.59;4953470;28;20102;-81
2024/02/19 01:43:36;;;;;;;1.85;1.67;;;;;;;9.95;77.70;97496.91;4959019;29;20109;-80
2024/02/19 01:46:04;;;;;;;1.65;1.55;;;;;;;9.95;78.30;97498.69;4958692;29;20085;-80
2024/02/19 01:48:33;;;;;;;1.60;1.50;;;;;;;9.94;77.89;97520.53;4958725;29;20499;-81
2024/02/19 01:51:01;;;;;;;2.90;1.70;;;;;;;9.93;78.00;97505.84;4959461;29;20058;-80
2024/02/19 01:53:30;;;;;;;2.20;1.85;;;;;;;9.93;77.84;97508.44;4965942;28;20110;-81
2024/02/19 01:56:00;;;;;;;3.50;1.70;;;;;;;9.89;78.38;97492.31;4958697;29;20138;-80
2024/02/19 01:58:30;;;;;;;1.80;1.65;;;;;;;9.86;78.13;97496.06;4958561;29;20455;-80
2024/02/19 02:00:58;;;;;;;2.20;1.38;;;;;;;9.86;78.33;97498.66;4958367;29;20471;-81
2024/02/19 02:03:29;;;;;;;1.38;1.25;;;;;;;9.84;78.50;97495.41;4960752;29;20139;-81
2024/02/19 02:05:59;;;;;;;1.60;1.50;;;;;;;9.83;78.54;97493.75;4958798;29;20129;-80
2024/02/19 02:08:28;;;;;;;1.00;1.00;;;;;;;9.85;78.32;97506.63;4958009;29;20462;-81
2024/02/19 02:10:57;;;;;;;1.60;1.30;;;;;;;9.84;78.27;97502.41;4958117;29;20047;-81
2024/02/19 02:13:27;;;;;;;1.05;0.95;;;;;;;9.82;78.17;97510.38;4958091;29;20067;-81
2024/02/19 02:15:55;;;;;;;1.13;1.00;;;;;;;9.84;78.41;97499.81;4957538;29;20054;-80
2024/02/19 02:18:24;;;;;;;0.98;0.98;;;;;;;9.83;78.66;97498.16;4958316;29;20106;-80
2024/02/19 02:20:53;;;;;;;1.27;1.15;;;;;;;9.81;78.55;97494.88;4958113;29;20062;-80
2024/02/19 02:23:22;;;;;;;0.98;0.88;;;;;;;9.81;78.65;97498.28;4958323;29;20107;-80
2024/02/19 02:25:51;;;;;;;1.33;1.10;;;;;;;9.80;78.64;97496.69;4958402;29;20062;-80
2024/02/19 02:28:21;;;;;;;0.63;0.60;;;;;;;9.80;78.64;97499.28;4958252;29;20055;-80
2024/02/19 02:30:51;;;;;;;1.27;1.00;;;;;;;9.79;78.81;97505.44;4957874;29;20106;-80
2024/02/19 02:33:19;;;;;;;0.90;0.90;;;;;;;9.74;78.76;97502.50;4957994;29;20150;-80
2024/02/19 02:35:48;;;;;;;1.00;1.00;;;;;;;9.75;78.92;97504.16;4957788;29;20055;-81
2024/02/19 02:38:18;;;;;;;0.70;0.70;;;;;;;9.76;78.91;97502.34;4958173;29;20464;-81
2024/02/19 02:40:47;;;;;;;1.10;0.98;;;;;;;9.76;78.86;97497.94;4962959;28;20062;-83
2024/02/19 02:43:15;;;;;;;1.40;1.30;;;;;;;9.76;78.65;97502.34;4962367;29;20380;-80
2024/02/19 02:45:46;;;;;;;1.48;1.20;;;;;;;9.75;78.88;97498.94;4960035;29;20054;-81
2024/02/19 02:48:14;;;;;;;0.90;0.90;;;;;;;9.72;78.70;97496.63;4959310;29;20427;-81
2024/02/19 02:50:43;;;;;;;1.17;1.08;;;;;;;9.72;78.88;97495.81;4958740;29;20051;-80
2024/02/19 02:53:12;;;;;;;1.05;0.90;;;;;;;9.71;79.18;97500.22;4956995;28;20050;-80
2024/02/19 02:55:42;;;;;;;0.82;0.82;;;;;;;9.71;79.15;97505.41;4957721;29;20110;-81
2024/02/19 02:58:10;;;;;;;1.45;1.20;;;;;;;9.68;79.17;97495.28;4957677;29;20058;-80
2024/02/19 03:00:42;;;;;;;1.15;1.05;;;;;;;9.66;79.77;97500.69;4957363;29;20075;-80
2024/02/19 03:03:13;;;;;;;1.98;1.60;;;;;;;9.70;80.33;97498.56;4957379;29;20055;-80
2024/02/19 03:05:42;;;;;;;1.33;1.23;;;;;;;9.71;80.31;97497.59;4957577;29;20055;-80
2024/02/19 03:08:11;;;;;;;2.65;1.15;;;;;;;9.74;80.49;97496.47;4957442;29;20070;-80
2024/02/19 03:10:39;;;;;;;0.70;0.70;;;;;;;9.79;80.45;97502.03;4957141;29;20487;-80
2024/02/19 03:13:08;;;;;;;2.30;1.13;;;;;;;9.79;79.93;97492.41;4957239;29;20061;-80
2024/02/19 03:15:37;;;;;;;1.30;1.20;;;;;;;9.80;79.88;97501.06;4957118;29;20051;-80
2024/02/19 03:18:06;;;;;;;1.20;1.10;;;;;;;9.80;79.85;97498.47;4957078;29;20138;-80
2024/02/19 03:20:36;;;;;;;1.40;1.27;;;;;;;9.80;80.41;97499.28;4957195;29;20071;-80
2024/02/19 03:23:06;;;;;;;1.80;1.00;;;;;;;9.82;80.19;97502.56;4957229;29;20051;-80
2024/02/19 03:25:35;;;;;;;1.75;1.27;;;;;;;9.82;79.67;97502.56;4956935;29;20051;-80
2024/02/19 03:28:09;;;;;;;1.77;1.67;;;;;;;9.82;79.86;97507.75;4956933;29;20051;-80
2024/02/19 03:30:38;;;;;;;2.42;1.35;;;;;;;9.82;80.10;97510.38;4957178;29;20300;-80
2024/02/19 03:33:07;;;;;;;1.23;1.13;;;;;;;9.81;79.87;97516.53;4956919;29;20051;-80
2024/02/19 03:35:42;;;;;;;1.08;1.00;;;;;;;9.80;80.14;97514.09;4956661;29;20059;-80
2024/02/19 03:38:10;;;;;;;1.88;1.15;;;;;;;9.80;79.78;97519.31;4956607;29;20055;-80
2024/02/19 03:40:42;;;;;;;1.05;0.95;;;;;;;9.77;79.41;97515.19;4956326;29;20050;-80
2024/02/19 03:43:12;;;;;;;1.48;1.25;;;;;;;9.75;79.57;97516.34;4957186;29;20106;-80
2024/02/19 03:45:40;;;;;;;1.33;1.17;;;;;;;9.75;79.65;97517.19;4957035;29;20055;-80
2024/02/19 03:48:10;;;;;;;1.70;1.60;;;;;;;9.75;79.57;97511.97;4956075;29;20063;-80
2024/02/19 03:50:42;;;;;;;6.13;1.90;;;;;;;9.76;79.42;97526.63;4956411;29;20459;-80
2024/02/19 03:53:11;;;;;;;2.15;1.70;;;;;;;9.74;79.30;97519.94;4956160;29;20061;-79
2024/02/19 03:55:39;;;;;;;3.40;1.80;;;;;;;9.72;79.33;97521.88;4956199;29;20062;-80
2024/02/19 03:58:08;;;;;;;2.58;1.77;;;;;;;9.72;79.71;97527.88;4956217;29;20091;-80
2024/02/19 04:00:37;;;;;;;2.53;1.92;;;;;;;9.72;79.83;97527.88;4955828;29;20051;-81
2024/02/19 04:03:06;;;;;;;2.92;2.22;;;;;;;9.72;79.83;97527.88;4955710;28;20063;-79
2024/02/19 04:05:35;;;;;;;4.30;2.25;;;;;;;9.74;80.29;97533.75;4956982;29;20048;-80
2024/02/19 04:08:06;;;;;;;6.40;2.17;;;;;;;9.73;79.92;97529.53;4957072;29;20059;-80
2024/02/19 04:10:37;;;;;;;2.88;2.10;;;;;;;9.74;80.21;97527.75;4961122;29;20578;-81
2024/02/19 04:13:05;;;;;;;2.50;2.30;;;;;;;9.73;80.07;97539.97;4963991;29;20047;-81
2024/02/19 04:15:34;;;;;;;3.03;1.92;;;;;;;9.74;79.95;97536.38;4958369;29;20051;-80
2024/02/19 04:18:02;;;;;;;3.20;2.85;;;;;;;9.75;80.18;97543.22;4956187;29;20055;-81
2024/02/19 04:20:31;;;;;;;5.00;2.53;;;;;;;9.76;80.58;97534.44;4956210;29;20051;-80
2024/02/19 04:23:00;;;;;;;3.22;2.40;;;;;;;9.78;79.78;97537.69;4955832;29;20134;-80
2024/02/19 04:25:30;;;;;;;3.45;2.20;;;;;;;9.78;79.96;97532.50;4955909;29;20468;-80
2024/02/19 04:27:58;;;;;;;3.08;2.38;;;;;;;9.76;80.60;97531.81;4956280;29;20047;-80
2024/02/19 04:30:27;;;;;;;3.50;2.50;;;;;;;9.77;80.87;97530.84;4955675;29;20070;-80
2024/02/19 04:32:56;;;;;;;3.30;2.50;;;;;;;9.77;80.64;97540.44;4956429;29;20105;-81
2024/02/19 04:35:25;;;;;;;2.58;2.38;;;;;;;9.77;80.39;97535.25;4956278;29;20059;-80
2024/02/19 04:37:54;;;;;;;2.63;2.35;;;;;;;9.76;80.01;97531.81;4956413;29;20142;-80
2024/02/19 04:40:22;;;;;;;2.95;2.63;;;;;;;9.79;80.60;97534.09;4938405;23;20052;-77
2024/02/19 04:42:51;;;;;;;3.22;2.58;;;;;;;9.80;80.69;97530.53;4916161;29;20044;-77
2024/02/19 04:45:18;;;;;;;3.90;2.38;;;;;;;9.80;81.11;97519.31;4916523;29;20044;-77
2024/02/19 04:47:46;;;;;;;3.13;2.40;;;;;;;9.82;81.17;97523.41;4916765;29;20432;-77
2024/02/19 04:50:13;;;;;;;2.05;1.95;;;;;;;9.84;81.06;97508.44;4916718;29;20059;-77
2024/02/19 04:52:41;;;;;;;4.38;2.10;;;;;;;9.89;81.13;97502.75;4916416;29;20091;-77
2024/02/19 04:55:09;;;;;;;2.35;2.15;;;;;;;9.90;80.63;97500.00;4916356;29;20501;-77
2024/02/19 04:57:37;;;;;;;3.50;2.05;;;;;;;9.94;80.72;97504.88;4915983;29;20052;-77
2024/02/19 05:00:08;;;;;;;3.30;2.00;;;;;;;9.98;80.68;97516.63;4916119;29;20163;-77
2024/02/19 05:02:35;;;;;;;2.42;2.13;;;;;;;10.00;80.75;97530.34;4916090;29;20518;-77
2024/02/19 05:05:03;;;;;;;3.08;1.63;;;;;;;9.98;80.15;97540.91;4915943;29;20052;-77
2024/02/19 05:07:31;;;;;;;2.90;2.60;;;;;;;9.96;80.24;97540.25;4916157;29;20059;-77
2024/02/19 05:09:59;;;;;;;2.05;1.90;;;;;;;9.94;80.41;97547.41;4916190;29;20587;-77
2024/02/19 05:12:26;;;;;;;1.58;1.48;;;;;;;9.92;80.21;97540.72;4916198;29;20052;-77
2024/02/19 05:14:54;;;;;;;2.13;2.00;;;;;;;9.88;80.64;97541.03;4912369;29;20060;-77
2024/02/19 05:17:23;;;;;;;2.47;2.28;;;;;;;9.86;80.17;97542.97;4903700;29;20179;-77
2024/02/19 05:19:51;;;;;;;3.38;2.30;;;;;;;9.86;80.16;97540.38;4918361;29;20044;-78
2024/02/19 05:22:19;;;;;;;4.28;2.20;;;;;;;9.85;80.14;97530.91;4917120;29;20055;-78
2024/02/19 05:24:47;;;;;;;1.80;1.70;;;;;;;9.83;80.12;97529.41;4912068;29;20103;-78
2024/02/19 05:27:15;;;;;;;2.53;2.33;;;;;;;9.83;80.28;97538.03;4914427;29;20054;-77
2024/02/19 05:29:43;;;;;;;2.53;1.83;;;;;;;9.83;80.16;97540.66;4917347;29;20054;-79
2024/02/19 05:32:10;;;;;;;3.25;2.30;;;;;;;9.82;80.45;97541.63;4917996;29;20047;-78
2024/02/19 05:34:39;;;;;;;3.00;2.58;;;;;;;9.81;80.27;97540.00;4903045;29;20131;-77
2024/02/19 05:37:07;;;;;;;3.47;2.88;;;;;;;9.81;80.29;97537.38;4918306;29;20096;-77
2024/02/19 05:39:34;;;;;;;3.92;2.95;;;;;;;9.82;80.31;97544.25;4931558;29;20049;-77
2024/02/19 05:42:02;;;;;;;3.20;2.90;;;;;;;9.82;80.30;97543.44;4911300;29;20143;-78
2024/02/19 05:44:29;;;;;;;3.92;3.05;;;;;;;9.84;80.71;97547.50;4904066;29;20528;-76
2024/02/19 05:46:57;;;;;;;4.07;3.47;;;;;;;9.85;80.32;97549.13;4915295;29;20062;-77
2024/02/19 05:49:25;;;;;;;3.03;2.63;;;;;;;9.86;80.41;97550.78;4901410;29;20577;-79
2024/02/19 05:51:54;;;;;;;4.22;3.50;;;;;;;9.86;80.13;97553.41;4900690;29;20128;-78
2024/02/19 05:54:22;;;;;;;4.72;3.38;;;;;;;9.84;80.48;97563.16;4918935;29;20056;-79
2024/02/19 05:56:50;;;;;;;4.15;3.10;;;;;;;9.82;80.60;97557.28;4913104;29;20116;-76
2024/02/19 05:59:17;;;;;;;6.85;3.42;;;;;;;9.80;80.91;97559.22;4917198;29;20135;-79
2024/02/19 06:01:45;;;;;;;5.20;3.28;;;;;;;9.80;81.11;97556.59;4917655;29;20131;-78
2024/02/19 06:04:13;;;;;;;5.10;3.67;;;;;;;9.76;81.04;97555.28;4917820;29;20111;-79
2024/02/19 06:06:40;;;;;;;4.22;3.08;;;;;;;9.74;81.05;97557.22;4917816;29;20573;-79
2024/02/19 06:09:10;;;;;;;7.70;3.35;;;;;;;9.77;81.62;97562.09;4917674;29;20058;-79
2024/02/19 06:11:44;;;;;;;3.95;3.28;;;;;;;9.79;81.27;97552.34;4917608;29;20132;-79
2024/02/19 06:14:11;;;;;;;6.90;3.42;;;;;;;9.80;80.31;97555.78;4917652;29;20087;-79
2024/02/19 06:16:39;;;;;;;5.22;3.15;;;;;;;9.77;79.66;97551.69;4918875;29;20067;-78
2024/02/19 06:19:08;;;;;;;5.20;3.78;;;;;;;9.75;80.53;97556.25;4922130;29;20051;-81
2024/02/19 06:21:36;;;;;;;6.40;3.10;;;;;;;9.75;80.97;97556.25;4922088;29;20135;-79
2024/02/19 06:24:05;;;;;;;5.75;3.70;;;;;;;9.75;80.23;97569.28;4919027;29;20453;-79
2024/02/19 06:26:34;;;;;;;6.65;3.80;;;;;;;9.70;80.59;97572.31;4919350;29;20091;-79
2024/02/19 06:29:03;;;;;;;5.57;3.50;;;;;;;9.68;80.80;97579.47;4918901;29;20135;-79
2024/02/19 06:31:30;;;;;;;2.85;2.55;;;;;;;9.67;80.21;97587.47;4919569;29;20060;-79
2024/02/19 06:33:58;;;;;;;2.72;2.30;;;;;;;9.60;80.00;97595.06;4919178;29;20052;-79
2024/02/19 06:36:26;;;;;;;4.40;2.45;;;;;;;9.53;80.08;97596.59;4922966;29;20428;-79
2024/02/19 06:38:53;;;;;;;2.67;1.92;;;;;;;9.49;79.74;97605.72;4925178;29;20484;-79
2024/02/19 06:41:21;;;;;;;3.65;2.70;;;;;;;9.46;79.66;97616.41;4924644;29;20048;-79
2024/02/19 06:43:50;;;;;;;3.92;2.67;;;;;;;9.42;79.72;97626.34;4922023;29;20080;-80
2024/02/19 06:46:18;;;;;;;3.78;2.60;;;;;;;9.36;79.78;97620.88;4919230;29;20124;-80
2024/02/19 06:48:45;;;;;;;3.05;2.22;;;;;;;9.33;79.89;97618.56;4919139;29;20056;-79
2024/02/19 06:51:17;;;;;;;2.10;1.90;;;;;;;9.36;79.98;97637.34;4918774;29;20115;-79
2024/02/19 06:53:45;;;;;;;4.75;1.90;;;;;;;9.39;80.04;97631.81;4918819;29;20076;-79
2024/02/19 06:56:13;;;;;;;3.58;2.10;;;;;;;9.43;79.71;97633.16;4918242;29;20143;-79
2024/02/19 06:58:40;;;;;;;3.20;1.90;;;;;;;9.44;79.45;97639.19;4918554;29;20060;-79
2024/02/19 07:01:09;;;;;;;3.40;2.15;;;;;;;9.45;80.35;97636.44;4918617;29;20127;-79
2024/02/19 07:03:37;;;;;;;3.42;2.30;;;;;;;9.48;79.42;97641.34;4918154;29;20091;-78
2024/02/19 07:06:06;;;;;;;2.80;1.83;;;;;;;9.44;79.28;97640.00;4918213;29;20056;-79
2024/02/19 07:08:34;;;;;;;2.25;2.08;;;;;;;9.44;79.45;97645.22;4918079;29;20048;-79
2024/02/19 07:11:01;;;;;;;2.15;1.95;;;;;;;9.43;79.80;97643.59;4933824;29;20037;-79
2024/02/19 07:13:29;;;;;;;3.60;1.73;;;;;;;9.44;79.42;97642.59;4939484;29;20043;-79
2024/02/19 07:15:57;;;;;;;2.50;1.80;;;;;;;9.43;79.73;97647.97;4931422;29;20048;-79
2024/02/19 07:18:26;;;;;;;2.75;2.05;;;;;;;9.46;79.42;97653.69;4923693;29;20528;-79
2024/02/19 07:20:54;;;;;;;2.67;1.90;;;;;;;9.45;79.05;97659.06;4921016;29;20051;-79
2024/02/19 07:23:21;;;;;;;5.95;2.30;;;;;;;9.48;79.23;97654.38;4920331;29;20143;-79
2024/02/19 07:25:49;;;;;;;2.35;1.70;;;;;;;9.51;80.01;97660.25;4921292;29;20147;-80
2024/02/19 07:28:19;;;;;;;4.22;2.40;;;;;;;9.57;80.04;97659.66;4919789;29;20075;-79
2024/02/19 07:30:47;;;;;;;2.53;2.17;;;;;;;9.59;80.30;97660.31;4919152;29;20056;-79
2024/02/19 07:33:15;;;;;;;4.10;2.30;;;;;;;9.62;79.76;97665.22;4917636;29;20056;-79
2024/02/19 07:35:44;;;;;;;3.10;2.50;;;;;;;9.58;78.73;97674.34;4918597;29;20179;-79
2024/02/19 07:38:11;;;;;;;3.42;2.13;;;;;;;9.51;78.89;97675.88;4918012;29;20056;-80
2024/02/19 07:40:39;;;;;;;2.75;2.33;;;;;;;9.49;78.88;97674.25;4918334;29;20095;-79
2024/02/19 07:43:07;;;;;;;2.75;2.38;;;;;;;9.50;78.51;97675.06;4917402;29;20055;-79
2024/02/19 07:45:34;;;;;;;3.35;2.65;;;;;;;9.51;78.56;97686.28;4917696;29;20131;-79
2024/02/19 07:48:03;;;;;;;3.67;2.10;;;;;;;9.48;78.03;97687.41;4918756;29;20052;-79
2024/02/19 07:50:32;;;;;;;2.88;2.58;;;;;;;9.44;78.09;97688.66;4917391;29;20056;-79
2024/02/19 07:53:01;;;;;;;2.90;2.58;;;;;;;9.36;78.06;97697.22;4917780;29;20067;-79
2024/02/19 07:55:32;;;;;;;3.50;2.40;;;;;;;9.30;78.43;97695.22;4917406;29;20544;-79
2024/02/19 07:57:59;;;;;;;3.55;2.83;;;;;;;9.32;79.18;97698.47;4917622;29;20481;-80
2024/02/19 08:00:27;;;;;;;5.47;3.40;;;;;;;9.34;79.47;97700.94;4921868;29;20574;-79
2024/02/19 08:02:55;;;;;;;7.10;4.10;;;;;;;9.27;78.70;97700.69;4937917;29;20080;-79
2024/02/19 08:05:22;;;;;;;13.25;6.80;;;;;;;9.25;79.13;97708.66;4936849;29;20111;-80
2024/02/19 08:07:50;;;;;;;10.90;4.88;;;;;;;9.26;79.59;97712.91;4933462;29;20063;-80
2024/02/19 08:10:19;;;;;;;5.68;2.97;;;;;;;9.28;79.89;97712.75;4935953;29;20079;-80
2024/02/19 08:12:47;;;;;;;5.43;3.20;;;;;;;9.28;78.86;97710.97;4935523;29;20056;-80
2024/02/19 08:15:15;;;;;;;4.88;2.65;;;;;;;9.26;78.33;97717.28;4919871;29;20048;-79
2024/02/19 08:17:43;;;;;;;5.38;2.42;;;;;;;9.24;79.34;97716.63;4917260;29;20060;-79
2024/02/19 08:20:10;;;;;;;4.13;3.22;;;;;;;9.27;79.08;97717.16;4917142;29;20052;-80
2024/02/19 08:22:38;;;;;;;9.15;3.22;;;;;;;9.29;79.04;97722.19;4916921;29;20111;-80
2024/02/19 08:25:06;;;;;;;5.50;2.40;;;;;;;9.27;78.52;97721.53;4917648;29;20055;-80
2024/02/19 08:27:35;;;;;;;5.55;2.75;;;;;;;9.26;78.34;97719.91;4917421;29;20083;-80
2024/02/19 08:30:02;;;;;;;4.22;2.40;;;;;;;9.28;78.60;97723.19;4916817;29;20150;-79
2024/02/19 08:32:30;;;;;;;4.93;2.58;;;;;;;9.29;78.62;97727.41;4916716;29;20052;-79
2024/02/19 08:34:57;;;;;;;3.00;2.70;;;;;;;9.28;78.29;97725.78;4916591;29;20071;-80
2024/02/19 08:37:25;;;;;;;4.57;2.30;;;;;;;9.23;77.59;97726.22;4917024;29;20052;-79
2024/02/19 08:39:53;;;;;;;3.60;2.03;;;;;;;9.20;77.95;97742.13;4916522;29;20514;-80
2024/02/19 08:42:20;;;;;;;2.92;1.80;;;;;;;9.22;78.62;97734.97;4916130;29;20124;-79
2024/02/19 08:44:49;;;;;;;4.43;2.15;;;;;;;9.26;78.82;97736.34;4917303;29;20055;-79
2024/02/19 08:47:18;;;;;;;3.20;1.90;;;;;;;9.31;78.36;97741.09;4917477;29;20139;-80
2024/02/19 08:49:45;;;;;;;5.20;2.05;;;;;;;9.30;78.81;97739.47;4918412;29;20483;-79
2024/02/19 08:52:14;;;;;;;2.47;1.80;;;;;;;9.35;78.68;97749.44;4920827;29;20130;-80
2024/02/19 08:54:41;;;;;;;4.15;1.60;;;;;;;9.37;78.41;97753.53;4921100;29;20424;-80
2024/02/19 08:57:09;;;;;;;2.45;1.80;;;;;;;9.35;77.94;97745.06;4920291;29;20052;-79
2024/02/19 08:59:37;;;;;;;5.88;2.35;;;;;;;9.32;77.92;97763.59;4920332;29;20052;-79
2024/02/19 09:02:06;;;;;;;4.88;1.88;;;;;;;9.28;78.04;97763.03;4920165;29;20048;-79
2024/02/19 09:04:34;;;;;;;3.85;1.63;;;;;;;9.23;77.52;97759.25;4919956;29;20103;-80
2024/02/19 09:07:02;;;;;;;4.70;1.67;;;;;;;9.19;77.47;97763.09;4920208;29;20059;-79
2024/02/19 09:09:30;;;;;;;3.47;1.98;;;;;;;9.17;77.49;97768.44;4920275;29;20063;-79
2024/02/19 09:11:58;;;;;;;1.80;1.70;;;;;;;9.15;77.07;97765.16;4920495;29;20086;-80
2024/02/19 09:14:26;;;;;;;1.65;1.38;;;;;;;9.15;77.43;97766.94;4920454;29;20349;-80
2024/02/19 09:16:55;;;;;;;2.97;1.45;;;;;;;9.19;77.49;97770.91;4921442;29;20055;-79
2024/02/19 09:19:24;;;;;;;4.80;1.70;;;;;;;9.20;76.82;97772.53;4920449;29;20502;-79
2024/02/19 09:21:52;;;;;;;1.40;1.17;;;;;;;9.19;76.99;97770.91;4920261;29;20603;-80
2024/02/19 09:24:20;;;;;;;2.53;1.65;;;;;;;9.19;77.23;97760.50;4919967;29;20052;-80
2024/02/19 09:26:47;;;;;;;3.72;1.42;;;;;;;9.25;77.40;97771.16;4920477;29;20482;-80
2024/02/19 09:29:15;;;;;;;3.25;1.20;;;;;;;9.30;76.67;97777.72;4920274;29;20060;-79
2024/02/19 09:31:44;;;;;;;3.15;1.88;;;;;;;9.30;75.41;97782.94;4920038;29;20146;-79
2024/02/19 09:34:11;;;;;;;4.88;1.50;;;;;;;9.26;75.71;97774.56;4919687;29;20055;-79
2024/02/19 09:36:43;;;;;;;5.63;2.65;;;;;;;9.22;74.91;97781.03;4920208;29;20051;-79
2024/02/19 09:39:11;;;;;;;5.28;1.77;;;;;;;9.20;75.47;97777.75;4920462;29;20112;-80
2024/02/19 09:41:39;;;;;;;2.78;1.65;;;;;;;9.19;74.77;97787.34;4920810;29;20056;-80
2024/02/19 09:44:08;;;;;;;3.38;1.20;;;;;;;9.15;74.64;97786.00;4920037;29;20079;-79
2024/02/19 09:46:36;;;;;;;2.58;1.10;;;;;;;9.17;75.29;97791.88;4920052;29;20131;-80
2024/02/19 09:49:10;;;;;;;3.00;1.17;;;;;;;9.23;75.64;97803.50;4919823;29;20052;-79
2024/02/19 09:51:47;;;;;;;2.22;1.50;;;;;;;9.27;75.48;97797.88;4920066;29;20049;-80
2024/02/19 09:54:15;;;;;;;2.97;1.00;;;;;;;9.36;75.58;97797.94;4919879;29;20060;-79
2024/02/19 09:56:45;;;;;;;3.30;1.40;;;;;;;9.40;75.29;97805.34;4919516;29;20181;-79
2024/02/19 09:59:15;;;;;;;3.03;1.30;;;;;;;9.37;74.61;97800.41;4919673;29;20066;-80
2024/02/19 10:01:43;;;;;;;2.90;1.83;;;;;;;9.33;74.56;97798.25;4919029;29;20060;-80
2024/02/19 10:04:14;;;;;;;1.60;1.30;;;;;;;9.34;75.22;97805.09;4919771;29;20048;-79
2024/02/19 10:06:43;;;;;;;5.00;1.70;;;;;;;9.35;75.48;97802.34;4919563;29;20410;-79
2024/02/19 10:09:14;;;;;;;2.30;1.33;;;;;;;9.30;74.60;97799.34;4919656;29;20485;-80
2024/02/19 10:11:41;;;;;;;5.38;1.30;;;;;;;9.25;74.30;97791.16;4919419;29;20056;-79
2024/02/19 10:14:10;;;;;;;4.25;1.80;;;;;;;9.22;74.34;97797.47;4919350;29;20055;-78
2024/02/19 10:16:38;;;;;;;1.77;1.20;;;;;;;9.22;73.81;97804.47;4919512;29;20076;-79
2024/02/19 10:19:07;;;;;;;5.57;1.70;;;;;;;9.19;74.49;97795.16;4919284;29;20052;-79
2024/02/19 10:21:35;;;;;;;2.05;1.40;;;;;;;9.15;75.13;97793.78;4919063;29;20056;-79
2024/02/19 10:24:05;;;;;;;3.53;1.92;;;;;;;9.14;75.20;97801.75;4941739;29;20052;-79
2024/02/19 10:26:33;;;;;;;4.15;1.83;;;;;;;9.07;75.34;97799.72;4941185;29;20052;-79
2024/02/19 10:29:00;;;;;;;3.42;1.45;;;;;;;9.07;75.58;97812.75;4934550;29;20056;-80
2024/02/19 10:31:29;;;;;;;2.25;2.05;;;;;;;9.04;75.75;97814.81;4919045;29;20504;-79
2024/02/19 10:33:57;;;;;;;3.45;1.70;;;;;;;9.04;75.72;97813.00;4918884;29;20052;-79
2024/02/19 10:36:25;;;;;;;2.08;1.30;;;;;;;9.03;74.91;97828.75;4918668;29;20135;-80
2024/02/19 10:38:53;;;;;;;4.95;1.33;;;;;;;9.01;75.24;97823.72;4922986;29;20083;-79
2024/02/19 10:41:23;;;;;;;3.70;1.40;;;;;;;8.99;74.33;97825.66;4937581;29;20044;-80
2024/02/19 10:43:51;;;;;;;3.15;1.38;;;;;;;9.00;75.32;97835.06;4937842;29;20112;-79
2024/02/19 10:46:21;;;;;;;3.53;1.42;;;;;;;9.03;74.75;97829.59;4920558;29;20048;-80
2024/02/19 10:48:51;;;;;;;2.58;1.58;;;;;;;9.05;74.98;97832.88;4920056;29;20059;-79
2024/02/19 10:51:19;;;;;;;3.75;1.38;;;;;;;9.07;74.81;97835.34;4919504;29;20079;-79
2024/02/19 10:53:47;;;;;;;3.95;1.60;;;;;;;9.04;74.71;97839.03;4919252;29;20674;-80
2024/02/19 10:56:16;;;;;;;4.50;1.67;;;;;;;9.04;74.23;97826.03;4918866;29;20075;-79
2024/02/19 10:58:55;;;;;;;2.72;1.23;;;;;;;9.03;74.14;97842.63;4918915;29;20072;-78
2024/02/19 11:01:24;;;;;;;2.15;1.23;;;;;;;9.00;73.91;97829.88;4918597;29;20048;-79
2024/02/19 11:03:52;;;;;;;2.80;1.98;;;;;;;8.94;73.37;97824.41;4918860;29;20410;-80
2024/02/19 11:06:23;;;;;;;1.73;1.17;;;;;;;8.94;73.58;97827.00;4919670;29;20183;-79
2024/02/19 11:08:55;;;;;;;4.38;2.03;;;;;;;8.95;73.26;97826.88;4919624;29;20056;-80
2024/02/19 11:11:24;;;;;;;3.90;1.42;;;;;;;8.94;73.53;97820.03;4919630;29;20151;-80
2024/02/19 11:13:52;;;;;;;2.13;1.00;;;;;;;8.96;73.58;97818.09;4917600;29;20052;-79
2024/02/19 11:16:21;;;;;;;2.35;1.25;;;;;;;9.01;73.49;97821.13;4917939;29;20103;-79
2024/02/19 11:18:53;;;;;;;5.18;1.02;;;;;;;9.03;72.65;97816.59;4918154;29;20052;-78
2024/02/19 11:21:22;;;;;;;10.32;2.53;;;;;;;9.03;72.18;97818.34;4918134;29;20078;-79
2024/02/19 11:23:49;;;;;;;3.17;1.27;;;;;;;9.00;72.75;97814.25;4918028;29;20424;-79
2024/02/19 11:26:17;;;;;;;3.55;1.02;;;;;;;8.98;71.96;97812.75;4917930;29;20135;-79
2024/02/19 11:28:45;;;;;;;3.15;1.27;;;;;;;8.98;72.40;97818.78;4917893;29;20144;-79
2024/02/19 11:31:14;;;;;;;3.55;1.35;;;;;;;9.01;72.50;97809.91;4918169;29;20146;-80
2024/02/19 11:33:44;;;;;;;3.13;1.23;;;;;;;9.01;71.16;97799.47;4918119;29;20056;-79
2024/02/19 11:36:11;;;;;;;2.25;0.95;;;;;;;9.02;71.76;97801.94;4917903;29;20050;-80
2024/02/19 11:38:39;;;;;;;3.50;0.70;;;;;;;9.04;71.91;97799.19;4917634;29;20058;-79
2024/02/19 11:41:09;;;;;;;1.80;0.90;;;;;;;9.08;72.11;97796.16;4917819;29;20052;-79
2024/02/19 11:43:38;;;;;;;3.00;1.33;;;;;;;9.13;72.86;97793.13;4917639;29;20405;-79
2024/02/19 11:46:06;;;;;;;2.30;0.95;;;;;;;9.16;72.32;97786.81;4917493;29;20489;-79
2024/02/19 11:48:35;;;;;;;2.70;1.20;;;;;;;9.14;71.64;97784.38;4917700;29;20500;-79